createdAt,value
2017-08-30T00:00:04.490Z,0
2017-08-30T00:00:30.605Z,0
2017-08-30T00:00:56.717Z,0
2017-08-30T00:01:22.834Z,0
2017-08-30T00:01:48.941Z,0
2017-08-30T00:02:15.092Z,0
2017-08-30T00:02:41.276Z,0
2017-08-30T00:03:07.389Z,0
2017-08-30T00:03:33.502Z,0
2017-08-30T00:03:59.625Z,0
2017-08-30T00:04:25.732Z,0
2017-08-30T00:04:51.839Z,0
2017-08-30T00:05:17.951Z,0
2017-08-30T00:05:44.066Z,0
2017-08-30T00:06:10.184Z,0
2017-08-30T00:06:36.303Z,0
2017-08-30T00:07:02.410Z,0
2017-08-30T00:07:28.519Z,0
2017-08-30T00:07:54.627Z,0
2017-08-30T00:08:20.737Z,0
2017-08-30T00:08:46.854Z,0
2017-08-30T00:09:12.957Z,0
2017-08-30T00:09:45.330Z,0
2017-08-30T00:10:11.438Z,0
2017-08-30T00:10:37.552Z,0
2017-08-30T00:11:03.662Z,0
2017-08-30T00:11:29.792Z,0
2017-08-30T00:11:55.909Z,0
2017-08-30T00:12:22.024Z,0
2017-08-30T00:12:48.135Z,0
2017-08-30T00:13:14.268Z,0
2017-08-30T00:13:40.358Z,0
2017-08-30T00:14:06.468Z,0
2017-08-30T00:14:32.573Z,0
2017-08-30T00:14:58.690Z,0
2017-08-30T00:15:24.797Z,0
2017-08-30T00:15:50.913Z,0
2017-08-30T00:16:17.024Z,0
2017-08-30T00:16:43.136Z,0
2017-08-30T00:17:09.241Z,0
2017-08-30T00:17:35.357Z,0
2017-08-30T00:18:01.469Z,0
2017-08-30T00:18:27.577Z,0
2017-08-30T00:18:53.692Z,0
2017-08-30T00:19:19.802Z,0
2017-08-30T00:19:45.920Z,0
2017-08-30T00:20:12.038Z,0
2017-08-30T00:20:38.148Z,0
2017-08-30T00:21:04.266Z,0
2017-08-30T00:21:30.378Z,0
2017-08-30T00:21:56.504Z,0
2017-08-30T00:22:22.619Z,0
2017-08-30T00:22:48.726Z,0
2017-08-30T00:23:14.843Z,0
2017-08-30T00:23:40.946Z,0
2017-08-30T00:24:07.060Z,0
2017-08-30T00:24:33.173Z,0
2017-08-30T00:24:59.288Z,0
2017-08-30T00:25:25.396Z,0
2017-08-30T00:25:51.512Z,0
2017-08-30T00:26:17.618Z,0
2017-08-30T00:26:43.730Z,0
2017-08-30T00:27:09.842Z,0
2017-08-30T00:27:35.968Z,0
2017-08-30T00:28:02.089Z,0
2017-08-30T00:28:28.207Z,0
2017-08-30T00:28:54.315Z,0
2017-08-30T00:29:20.427Z,0
2017-08-30T00:29:46.536Z,0
2017-08-30T00:30:12.645Z,0
2017-08-30T00:30:38.753Z,0
2017-08-30T00:31:04.869Z,0
2017-08-30T00:31:30.979Z,0
2017-08-30T00:31:57.095Z,0
2017-08-30T00:32:23.222Z,0
2017-08-30T00:32:49.328Z,0
2017-08-30T00:33:15.450Z,0
2017-08-30T00:33:41.551Z,0
2017-08-30T00:34:07.664Z,0
2017-08-30T00:34:33.772Z,0
2017-08-30T00:34:59.887Z,0
2017-08-30T00:35:26.005Z,0
2017-08-30T00:35:52.106Z,0
2017-08-30T00:36:18.224Z,0
2017-08-30T00:36:44.329Z,0
2017-08-30T00:37:10.449Z,0
2017-08-30T00:37:36.556Z,0
2017-08-30T00:38:02.667Z,0
2017-08-30T00:38:28.780Z,0
2017-08-30T00:38:54.889Z,0
2017-08-30T00:39:21.003Z,0
2017-08-30T00:39:47.109Z,0
2017-08-30T00:40:13.231Z,0
2017-08-30T00:40:39.342Z,0
2017-08-30T00:41:05.448Z,0
2017-08-30T00:41:31.570Z,0
2017-08-30T00:41:57.674Z,0
2017-08-30T00:42:23.792Z,0
2017-08-30T00:42:49.914Z,0
2017-08-30T00:43:16.033Z,0
2017-08-30T00:43:42.156Z,0
2017-08-30T00:44:08.270Z,0
2017-08-30T00:44:34.386Z,0
2017-08-30T00:45:00.495Z,0
2017-08-30T00:45:26.611Z,0
2017-08-30T00:45:52.725Z,0
2017-08-30T00:46:18.839Z,0
2017-08-30T00:46:44.951Z,0
2017-08-30T00:47:11.067Z,0
2017-08-30T00:47:37.172Z,0
2017-08-30T00:48:03.288Z,0
2017-08-30T00:48:29.397Z,0
2017-08-30T00:48:55.507Z,0
2017-08-30T00:49:21.622Z,0
2017-08-30T00:49:47.736Z,0
2017-08-30T00:50:13.850Z,0
2017-08-30T00:50:39.961Z,0
2017-08-30T00:51:06.079Z,0
2017-08-30T00:51:32.188Z,0
2017-08-30T00:51:58.315Z,0
2017-08-30T00:52:24.427Z,0
2017-08-30T00:52:50.540Z,0
2017-08-30T00:53:16.653Z,0
2017-08-30T00:53:42.764Z,0
2017-08-30T00:54:08.878Z,0
2017-08-30T00:54:34.983Z,0
2017-08-30T00:55:01.095Z,0
2017-08-30T00:55:27.211Z,0
2017-08-30T00:55:53.329Z,0
2017-08-30T00:56:19.447Z,0
2017-08-30T00:56:45.552Z,0
2017-08-30T00:57:11.675Z,0
2017-08-30T00:57:37.778Z,0
2017-08-30T00:58:03.891Z,0
2017-08-30T00:58:30.001Z,0
2017-08-30T00:58:56.116Z,0
2017-08-30T00:59:22.224Z,0
2017-08-30T00:59:48.331Z,0
2017-08-30T01:00:14.465Z,0
2017-08-30T01:00:40.572Z,0
2017-08-30T01:01:06.687Z,0
2017-08-30T01:01:32.797Z,0
2017-08-30T01:01:58.901Z,0
2017-08-30T01:02:25.014Z,0
2017-08-30T01:02:51.141Z,0
2017-08-30T01:03:17.245Z,0
2017-08-30T01:03:43.361Z,0
2017-08-30T01:04:09.473Z,0
2017-08-30T01:04:35.580Z,0
2017-08-30T01:05:01.690Z,0
2017-08-30T01:05:27.805Z,0
2017-08-30T01:05:53.912Z,0
2017-08-30T01:06:20.029Z,0
2017-08-30T01:06:46.145Z,0
2017-08-30T01:07:12.250Z,0
2017-08-30T01:07:38.357Z,0
2017-08-30T01:08:04.466Z,0
2017-08-30T01:08:30.582Z,0
2017-08-30T01:08:56.696Z,0
2017-08-30T01:09:22.804Z,0
2017-08-30T01:09:48.911Z,0
2017-08-30T01:10:15.019Z,0
2017-08-30T01:10:41.139Z,0
2017-08-30T01:11:07.247Z,0
2017-08-30T01:11:33.352Z,0
2017-08-30T01:11:59.467Z,0
2017-08-30T01:12:25.583Z,0
2017-08-30T01:12:51.689Z,0
2017-08-30T01:13:17.826Z,0
2017-08-30T01:13:43.934Z,0
2017-08-30T01:14:10.041Z,0
2017-08-30T01:14:36.152Z,0
2017-08-30T01:15:02.265Z,0
2017-08-30T01:15:28.371Z,0
2017-08-30T01:15:54.490Z,0
2017-08-30T01:16:20.601Z,0
2017-08-30T01:16:46.710Z,0
2017-08-30T01:17:12.819Z,0
2017-08-30T01:17:38.932Z,0
2017-08-30T01:18:05.034Z,0
2017-08-30T01:18:31.150Z,0
2017-08-30T01:18:57.256Z,0
2017-08-30T01:19:23.392Z,0
2017-08-30T01:19:49.498Z,0
2017-08-30T01:20:15.611Z,0
2017-08-30T01:20:41.728Z,0
2017-08-30T01:21:07.835Z,0
2017-08-30T01:21:33.947Z,0
2017-08-30T01:22:00.059Z,0
2017-08-30T01:22:26.172Z,0
2017-08-30T01:22:52.281Z,0
2017-08-30T01:23:18.394Z,0
2017-08-30T01:23:44.500Z,0
2017-08-30T01:24:10.616Z,0
2017-08-30T01:24:36.721Z,0
2017-08-30T01:25:02.829Z,0
2017-08-30T01:25:28.945Z,0
2017-08-30T01:25:55.049Z,0
2017-08-30T01:26:21.161Z,0
2017-08-30T01:26:47.276Z,0
2017-08-30T01:27:13.390Z,0
2017-08-30T01:27:39.500Z,0
2017-08-30T01:28:05.624Z,0
2017-08-30T01:28:31.734Z,0
2017-08-30T01:28:57.850Z,0
2017-08-30T01:29:23.956Z,0
2017-08-30T01:29:50.075Z,0
2017-08-30T01:30:16.188Z,0
2017-08-30T01:30:42.297Z,0
2017-08-30T01:31:08.406Z,0
2017-08-30T01:31:34.517Z,0
2017-08-30T01:32:00.621Z,0
2017-08-30T01:32:26.735Z,0
2017-08-30T01:32:52.850Z,0
2017-08-30T01:33:18.952Z,0
2017-08-30T01:33:45.061Z,0
2017-08-30T01:34:11.171Z,0
2017-08-30T01:34:37.283Z,0
2017-08-30T01:35:03.400Z,0
2017-08-30T01:35:29.509Z,0
2017-08-30T01:35:55.616Z,0
2017-08-30T01:36:21.732Z,0
2017-08-30T01:36:47.847Z,0
2017-08-30T01:37:13.960Z,0
2017-08-30T01:37:40.072Z,0
2017-08-30T01:38:06.206Z,0
2017-08-30T01:38:32.284Z,0
2017-08-30T01:38:58.394Z,0
2017-08-30T01:39:24.511Z,0
2017-08-30T01:39:50.625Z,0
2017-08-30T01:40:16.752Z,0
2017-08-30T01:40:42.863Z,0
2017-08-30T01:41:08.975Z,0
2017-08-30T01:41:35.083Z,0
2017-08-30T01:42:01.189Z,0
2017-08-30T01:42:27.299Z,0
2017-08-30T01:42:53.415Z,0
2017-08-30T01:43:19.527Z,0
2017-08-30T01:43:45.632Z,0
2017-08-30T01:44:11.748Z,0
2017-08-30T01:44:37.857Z,0
2017-08-30T01:45:03.962Z,0
2017-08-30T01:45:30.079Z,0
2017-08-30T01:45:56.186Z,0
2017-08-30T01:46:22.302Z,0
2017-08-30T01:46:48.407Z,0
2017-08-30T01:47:14.525Z,0
2017-08-30T01:47:40.635Z,0
2017-08-30T01:48:06.746Z,0
2017-08-30T01:48:32.858Z,0
2017-08-30T01:48:58.970Z,0
2017-08-30T01:49:25.081Z,0
2017-08-30T01:49:51.190Z,0
2017-08-30T01:50:17.320Z,0
2017-08-30T01:50:43.429Z,0
2017-08-30T01:51:09.552Z,0
2017-08-30T01:51:35.667Z,0
2017-08-30T01:52:01.773Z,0
2017-08-30T01:52:27.886Z,0
2017-08-30T01:52:54.001Z,0
2017-08-30T01:53:20.106Z,0
2017-08-30T01:53:46.223Z,0
2017-08-30T01:54:12.324Z,0
2017-08-30T01:54:38.441Z,0
2017-08-30T01:55:04.549Z,0
2017-08-30T01:55:30.648Z,0
2017-08-30T01:55:56.762Z,0
2017-08-30T01:56:22.873Z,0
2017-08-30T01:56:48.988Z,0
2017-08-30T01:57:15.095Z,0
2017-08-30T01:57:41.204Z,0
2017-08-30T01:58:07.319Z,0
2017-08-30T01:58:33.431Z,0
2017-08-30T01:58:59.546Z,0
2017-08-30T01:59:25.654Z,0
2017-08-30T01:59:51.768Z,0
2017-08-30T02:00:17.873Z,0
2017-08-30T02:00:44.000Z,0
2017-08-30T02:01:10.105Z,0
2017-08-30T02:01:36.220Z,0
2017-08-30T02:02:02.332Z,0
2017-08-30T02:02:28.447Z,0
2017-08-30T02:02:54.564Z,0
2017-08-30T02:03:20.671Z,0
2017-08-30T02:03:46.778Z,0
2017-08-30T02:04:12.911Z,0
2017-08-30T02:04:39.002Z,0
2017-08-30T02:05:05.106Z,0
2017-08-30T02:05:31.221Z,0
2017-08-30T02:05:57.327Z,0
2017-08-30T02:06:23.443Z,0
2017-08-30T02:06:49.557Z,0
2017-08-30T02:07:15.663Z,0
2017-08-30T02:07:41.780Z,0
2017-08-30T02:08:07.885Z,0
2017-08-30T02:08:33.992Z,0
2017-08-30T02:09:00.105Z,0
2017-08-30T02:09:26.214Z,0
2017-08-30T02:09:52.330Z,0
2017-08-30T02:10:18.435Z,0
2017-08-30T02:10:44.550Z,0
2017-08-30T02:11:10.662Z,0
2017-08-30T02:11:36.772Z,0
2017-08-30T02:12:02.884Z,0
2017-08-30T02:12:28.994Z,0
2017-08-30T02:12:55.106Z,0
2017-08-30T02:13:21.210Z,0
2017-08-30T02:13:47.326Z,0
2017-08-30T02:14:13.430Z,0
2017-08-30T02:14:39.536Z,0
2017-08-30T02:15:05.645Z,0
2017-08-30T02:15:31.762Z,0
2017-08-30T02:15:57.869Z,0
2017-08-30T02:16:23.999Z,0
2017-08-30T02:16:50.115Z,0
2017-08-30T02:17:16.229Z,0
2017-08-30T02:17:42.339Z,0
2017-08-30T02:18:08.453Z,0
2017-08-30T02:18:34.564Z,0
2017-08-30T02:19:00.669Z,0
2017-08-30T02:19:26.779Z,0
2017-08-30T02:19:52.886Z,0
2017-08-30T02:20:18.999Z,0
2017-08-30T02:20:45.117Z,0
2017-08-30T02:21:11.233Z,0
2017-08-30T02:21:37.347Z,0
2017-08-30T02:22:03.458Z,0
2017-08-30T02:22:29.570Z,0
2017-08-30T02:22:55.675Z,0
2017-08-30T02:23:21.783Z,0
2017-08-30T02:23:47.902Z,0
2017-08-30T02:24:14.022Z,0
2017-08-30T02:24:40.136Z,0
2017-08-30T02:25:06.251Z,0
2017-08-30T02:25:32.359Z,0
2017-08-30T02:25:58.467Z,0
2017-08-30T02:26:24.580Z,0
2017-08-30T02:26:50.696Z,0
2017-08-30T02:27:16.801Z,0
2017-08-30T02:27:42.911Z,0
2017-08-30T02:28:09.026Z,0
2017-08-30T02:28:35.148Z,0
2017-08-30T02:29:01.264Z,0
2017-08-30T02:29:27.378Z,0
2017-08-30T02:29:53.487Z,0
2017-08-30T02:30:19.602Z,0
2017-08-30T02:30:45.707Z,0
2017-08-30T02:31:11.822Z,0
2017-08-30T02:31:37.925Z,0
2017-08-30T02:32:04.051Z,0
2017-08-30T02:32:30.162Z,0
2017-08-30T02:32:56.275Z,0
2017-08-30T02:33:22.404Z,0
2017-08-30T02:33:48.514Z,0
2017-08-30T02:34:14.620Z,0
2017-08-30T02:34:40.755Z,0
2017-08-30T02:35:06.861Z,0
2017-08-30T02:35:32.970Z,0
2017-08-30T02:35:59.084Z,0
2017-08-30T02:36:25.190Z,0
2017-08-30T02:36:51.304Z,0
2017-08-30T02:37:17.419Z,0
2017-08-30T02:37:43.525Z,0
2017-08-30T02:38:09.641Z,0
2017-08-30T02:38:35.765Z,0
2017-08-30T02:39:01.879Z,0
2017-08-30T02:39:27.990Z,0
2017-08-30T02:39:54.096Z,0
2017-08-30T02:40:20.204Z,0
2017-08-30T02:40:46.310Z,0
2017-08-30T02:41:12.424Z,0
2017-08-30T02:41:38.536Z,0
2017-08-30T02:42:04.653Z,0
2017-08-30T02:42:30.762Z,0
2017-08-30T02:42:56.864Z,0
2017-08-30T02:43:23.002Z,0
2017-08-30T02:43:49.111Z,0
2017-08-30T02:44:15.240Z,0
2017-08-30T02:44:41.373Z,0
2017-08-30T02:45:07.467Z,0
2017-08-30T02:45:33.567Z,0
2017-08-30T02:45:59.674Z,0
2017-08-30T02:46:25.787Z,0
2017-08-30T02:46:51.907Z,0
2017-08-30T02:47:18.025Z,0
2017-08-30T02:47:44.139Z,0
2017-08-30T02:48:10.265Z,0
2017-08-30T02:48:36.383Z,0
2017-08-30T02:49:02.504Z,0
2017-08-30T02:49:28.612Z,0
2017-08-30T02:49:54.728Z,0
2017-08-30T02:50:20.834Z,0
2017-08-30T02:50:46.965Z,0
2017-08-30T02:51:13.076Z,0
2017-08-30T02:51:39.192Z,0
2017-08-30T02:52:05.298Z,0
2017-08-30T02:52:31.413Z,0
2017-08-30T02:52:57.526Z,0
2017-08-30T02:53:23.634Z,0
2017-08-30T02:53:49.754Z,0
2017-08-30T02:54:15.867Z,0
2017-08-30T02:54:41.981Z,0
2017-08-30T02:55:08.087Z,0
2017-08-30T02:55:34.196Z,0
2017-08-30T02:56:00.311Z,0
2017-08-30T02:56:26.424Z,0
2017-08-30T02:56:52.544Z,0
2017-08-30T02:57:18.665Z,0
2017-08-30T02:57:44.773Z,0
2017-08-30T02:58:10.889Z,0
2017-08-30T02:58:37.012Z,0
2017-08-30T02:59:03.127Z,0
2017-08-30T02:59:29.234Z,0
2017-08-30T02:59:55.338Z,0
2017-08-30T03:00:21.450Z,0
2017-08-30T03:00:47.556Z,0
2017-08-30T03:01:13.672Z,0
2017-08-30T03:01:39.792Z,0
2017-08-30T03:02:05.898Z,0
2017-08-30T03:02:32.014Z,0
2017-08-30T03:02:58.143Z,0
2017-08-30T03:03:24.227Z,0
2017-08-30T03:03:50.343Z,0
2017-08-30T03:04:16.455Z,0
2017-08-30T03:04:42.569Z,0
2017-08-30T03:05:08.669Z,0
2017-08-30T03:05:34.778Z,0
2017-08-30T03:06:00.894Z,0
2017-08-30T03:06:27.001Z,0
2017-08-30T03:06:53.120Z,0
2017-08-30T03:07:19.230Z,0
2017-08-30T03:07:45.355Z,0
2017-08-30T03:08:11.467Z,0
2017-08-30T03:08:37.576Z,0
2017-08-30T03:09:03.681Z,0
2017-08-30T03:09:29.789Z,0
2017-08-30T03:09:55.904Z,0
2017-08-30T03:10:22.016Z,0
2017-08-30T03:10:48.129Z,0
2017-08-30T03:11:14.240Z,0
2017-08-30T03:11:40.353Z,0
2017-08-30T03:12:06.465Z,0
2017-08-30T03:12:32.573Z,0
2017-08-30T03:12:58.679Z,0
2017-08-30T03:13:24.794Z,0
2017-08-30T03:13:50.902Z,0
2017-08-30T03:14:17.016Z,0
2017-08-30T03:14:43.121Z,0
2017-08-30T03:15:09.232Z,0
2017-08-30T03:15:35.343Z,0
2017-08-30T03:16:01.448Z,0
2017-08-30T03:16:27.556Z,0
2017-08-30T03:16:53.666Z,0
2017-08-30T03:17:19.781Z,0
2017-08-30T03:17:45.887Z,0
2017-08-30T03:18:12.008Z,0
2017-08-30T03:18:38.116Z,0
2017-08-30T03:19:04.222Z,0
2017-08-30T03:19:30.335Z,0
2017-08-30T03:19:56.459Z,0
2017-08-30T03:20:22.573Z,0
2017-08-30T03:20:48.682Z,0
2017-08-30T03:21:14.790Z,0
2017-08-30T03:21:40.907Z,0
2017-08-30T03:22:07.011Z,0
2017-08-30T03:22:33.118Z,0
2017-08-30T03:22:59.234Z,0
2017-08-30T03:23:25.344Z,0
2017-08-30T03:23:51.452Z,0
2017-08-30T03:24:17.561Z,0
2017-08-30T03:24:43.676Z,0
2017-08-30T03:25:09.788Z,0
2017-08-30T03:25:35.896Z,0
2017-08-30T03:26:02.004Z,0
2017-08-30T03:26:28.120Z,0
2017-08-30T03:26:54.234Z,0
2017-08-30T03:27:20.339Z,0
2017-08-30T03:27:46.450Z,0
2017-08-30T03:28:12.566Z,0
2017-08-30T03:28:38.678Z,0
2017-08-30T03:29:04.804Z,0
2017-08-30T03:29:30.912Z,0
2017-08-30T03:29:57.027Z,0
2017-08-30T03:30:23.133Z,0
2017-08-30T03:30:49.247Z,0
2017-08-30T03:31:15.353Z,0
2017-08-30T03:31:41.469Z,0
2017-08-30T03:32:07.583Z,0
2017-08-30T03:32:33.692Z,0
2017-08-30T03:32:59.797Z,0
2017-08-30T03:33:25.910Z,0
2017-08-30T03:33:52.019Z,0
2017-08-30T03:34:18.152Z,0
2017-08-30T03:34:44.263Z,0
2017-08-30T03:35:10.372Z,0
2017-08-30T03:35:36.487Z,0
2017-08-30T03:36:02.593Z,0
2017-08-30T03:36:28.704Z,0
2017-08-30T03:36:54.809Z,0
2017-08-30T03:37:20.924Z,0
2017-08-30T03:37:47.063Z,0
2017-08-30T03:38:13.177Z,0
2017-08-30T03:38:39.287Z,0
2017-08-30T03:39:05.394Z,0
2017-08-30T03:39:31.505Z,0
2017-08-30T03:39:57.612Z,0
2017-08-30T03:40:23.720Z,0
2017-08-30T03:40:49.838Z,0
2017-08-30T03:41:15.945Z,0
2017-08-30T03:41:42.055Z,0
2017-08-30T03:42:08.172Z,0
2017-08-30T03:42:34.281Z,0
2017-08-30T03:43:00.397Z,0
2017-08-30T03:43:26.502Z,0
2017-08-30T03:43:52.617Z,0
2017-08-30T03:44:18.724Z,0
2017-08-30T03:44:44.838Z,0
2017-08-30T03:45:10.946Z,0
2017-08-30T03:45:37.061Z,0
2017-08-30T03:46:03.173Z,0
2017-08-30T03:46:29.279Z,0
2017-08-30T03:46:55.386Z,0
2017-08-30T03:47:21.501Z,0
2017-08-30T03:47:47.612Z,0
2017-08-30T03:48:13.719Z,0
2017-08-30T03:48:39.833Z,0
2017-08-30T03:49:05.943Z,0
2017-08-30T03:49:32.055Z,0
2017-08-30T03:49:58.165Z,0
2017-08-30T03:50:24.272Z,0
2017-08-30T03:50:50.388Z,0
2017-08-30T03:51:16.493Z,0
2017-08-30T03:51:42.607Z,0
2017-08-30T03:52:08.719Z,0
2017-08-30T03:52:34.829Z,0
2017-08-30T03:53:00.942Z,0
2017-08-30T03:53:27.046Z,0
2017-08-30T03:53:53.155Z,0
2017-08-30T03:54:19.269Z,0
2017-08-30T03:54:45.380Z,0
2017-08-30T03:55:11.492Z,0
2017-08-30T03:55:37.607Z,0
2017-08-30T03:56:03.716Z,0
2017-08-30T03:56:29.825Z,0
2017-08-30T03:56:55.942Z,0
2017-08-30T03:57:22.053Z,0
2017-08-30T03:57:48.186Z,0
2017-08-30T03:58:14.285Z,0
2017-08-30T03:58:40.401Z,0
2017-08-30T03:59:06.506Z,0
2017-08-30T03:59:32.617Z,0
2017-08-30T03:59:58.722Z,0
2017-08-30T04:00:24.832Z,0
2017-08-30T04:00:50.943Z,0
2017-08-30T04:01:17.051Z,0
2017-08-30T04:01:43.164Z,0
2017-08-30T04:02:09.277Z,0
2017-08-30T04:02:35.392Z,0
2017-08-30T04:03:01.519Z,0
2017-08-30T04:03:27.627Z,0
2017-08-30T04:03:53.739Z,0
2017-08-30T04:04:19.850Z,0
2017-08-30T04:04:45.961Z,0
2017-08-30T04:05:12.067Z,0
2017-08-30T04:05:38.182Z,0
2017-08-30T04:06:04.291Z,0
2017-08-30T04:06:30.396Z,0
2017-08-30T04:06:56.512Z,0
2017-08-30T04:07:22.620Z,0
2017-08-30T04:07:48.729Z,0
2017-08-30T04:08:14.844Z,0
2017-08-30T04:08:40.958Z,0
2017-08-30T04:09:07.080Z,0
2017-08-30T04:09:33.208Z,0
2017-08-30T04:09:59.323Z,0
2017-08-30T04:10:25.448Z,0
2017-08-30T04:10:51.564Z,0
2017-08-30T04:11:17.669Z,0
2017-08-30T04:11:43.783Z,0
2017-08-30T04:12:09.896Z,0
2017-08-30T04:12:36.001Z,0
2017-08-30T04:13:02.137Z,0
2017-08-30T04:13:28.245Z,0
2017-08-30T04:13:54.357Z,0
2017-08-30T04:14:20.467Z,0
2017-08-30T04:14:46.573Z,0
2017-08-30T04:15:12.687Z,0
2017-08-30T04:15:38.799Z,0
2017-08-30T04:16:04.904Z,0
2017-08-30T04:16:31.011Z,0
2017-08-30T04:16:57.126Z,0
2017-08-30T04:17:23.237Z,0
2017-08-30T04:17:49.349Z,0
2017-08-30T04:18:15.461Z,0
2017-08-30T04:18:41.587Z,0
2017-08-30T04:19:07.691Z,0
2017-08-30T04:19:33.805Z,0
2017-08-30T04:19:59.911Z,0
2017-08-30T04:20:26.016Z,0
2017-08-30T04:20:52.132Z,0
2017-08-30T04:21:18.244Z,0
2017-08-30T04:21:44.359Z,0
2017-08-30T04:22:10.464Z,0
2017-08-30T04:22:36.572Z,0
2017-08-30T04:23:02.690Z,0
2017-08-30T04:23:28.802Z,5
2017-08-30T04:23:54.913Z,5
2017-08-30T04:24:21.014Z,5
2017-08-30T04:24:47.126Z,5
2017-08-30T04:25:13.240Z,5
2017-08-30T04:25:39.352Z,5
2017-08-30T04:26:05.467Z,5
2017-08-30T04:26:31.574Z,5
2017-08-30T04:26:57.689Z,5
2017-08-30T04:27:23.794Z,5
2017-08-30T04:27:49.905Z,5
2017-08-30T04:28:16.021Z,5
2017-08-30T04:28:42.124Z,5
2017-08-30T04:29:08.237Z,5
2017-08-30T04:29:34.350Z,5
2017-08-30T04:30:00.455Z,5
2017-08-30T04:30:26.564Z,5
2017-08-30T04:30:52.680Z,5
2017-08-30T04:31:18.788Z,5
2017-08-30T04:31:44.898Z,5
2017-08-30T04:32:11.013Z,5
2017-08-30T04:32:37.119Z,5
2017-08-30T04:33:03.236Z,5
2017-08-30T04:33:29.341Z,5
2017-08-30T04:33:55.448Z,10
2017-08-30T04:34:21.563Z,10
2017-08-30T04:34:47.676Z,10
2017-08-30T04:35:13.784Z,10
2017-08-30T04:35:39.890Z,10
2017-08-30T04:36:06.022Z,10
2017-08-30T04:36:32.135Z,10
2017-08-30T04:36:58.239Z,10
2017-08-30T04:37:24.374Z,10
2017-08-30T04:37:50.482Z,10
2017-08-30T04:38:16.592Z,10
2017-08-30T04:38:42.700Z,10
2017-08-30T04:39:08.813Z,10
2017-08-30T04:39:34.922Z,10
2017-08-30T04:40:01.034Z,10
2017-08-30T04:40:27.140Z,10
2017-08-30T04:40:53.259Z,10
2017-08-30T04:41:19.371Z,10
2017-08-30T04:41:45.475Z,10
2017-08-30T04:42:11.587Z,10
2017-08-30T04:42:37.694Z,10
2017-08-30T04:43:03.799Z,15
2017-08-30T04:43:29.914Z,15
2017-08-30T04:43:56.020Z,15
2017-08-30T04:44:22.128Z,15
2017-08-30T04:44:48.240Z,15
2017-08-30T04:45:14.349Z,15
2017-08-30T04:45:40.463Z,15
2017-08-30T04:46:06.592Z,20
2017-08-30T04:46:32.710Z,20
2017-08-30T04:46:58.820Z,20
2017-08-30T04:47:24.926Z,20
2017-08-30T04:47:51.032Z,20
2017-08-30T04:48:17.144Z,20
2017-08-30T04:48:43.256Z,25
2017-08-30T04:49:09.356Z,25
2017-08-30T04:49:35.474Z,25
2017-08-30T04:50:01.580Z,25
2017-08-30T04:50:27.694Z,25
2017-08-30T04:50:53.799Z,30
2017-08-30T04:51:19.909Z,30
2017-08-30T04:51:46.019Z,30
2017-08-30T04:52:12.136Z,30
2017-08-30T04:52:38.242Z,30
2017-08-30T04:53:04.353Z,30
2017-08-30T04:53:30.466Z,35
2017-08-30T04:53:56.576Z,35
2017-08-30T04:54:22.691Z,35
2017-08-30T04:54:48.797Z,35
2017-08-30T04:55:14.911Z,40
2017-08-30T04:55:41.024Z,40
2017-08-30T04:56:07.129Z,40
2017-08-30T04:56:33.246Z,40
2017-08-30T04:56:59.350Z,40
2017-08-30T04:57:25.465Z,40
2017-08-30T04:57:51.570Z,45
2017-08-30T04:58:17.677Z,40
2017-08-30T04:58:43.792Z,45
2017-08-30T04:59:09.918Z,45
2017-08-30T04:59:36.029Z,45
2017-08-30T05:00:02.137Z,45
2017-08-30T05:00:28.251Z,45
2017-08-30T05:00:54.359Z,45
2017-08-30T05:01:20.474Z,50
2017-08-30T05:01:46.578Z,50
2017-08-30T05:02:12.689Z,50
2017-08-30T05:02:38.800Z,50
2017-08-30T05:03:04.904Z,50
2017-08-30T05:03:31.022Z,50
2017-08-30T05:03:57.128Z,50
2017-08-30T05:04:23.239Z,50
2017-08-30T05:04:49.354Z,50
2017-08-30T05:05:15.460Z,50
2017-08-30T05:05:41.572Z,50
2017-08-30T05:06:07.694Z,50
2017-08-30T05:06:33.798Z,50
2017-08-30T05:06:59.908Z,50
2017-08-30T05:07:26.016Z,50
2017-08-30T05:07:52.147Z,55
2017-08-30T05:08:18.250Z,55
2017-08-30T05:08:44.362Z,55
2017-08-30T05:09:10.472Z,55
2017-08-30T05:09:36.584Z,55
2017-08-30T05:10:02.688Z,55
2017-08-30T05:10:28.795Z,55
2017-08-30T05:10:54.910Z,60
2017-08-30T05:11:21.016Z,60
2017-08-30T05:11:47.136Z,60
2017-08-30T05:12:13.243Z,60
2017-08-30T05:12:39.357Z,60
2017-08-30T05:13:05.463Z,60
2017-08-30T05:13:31.574Z,60
2017-08-30T05:13:57.683Z,60
2017-08-30T05:14:23.797Z,65
2017-08-30T05:14:49.902Z,65
2017-08-30T05:15:16.018Z,65
2017-08-30T05:15:42.124Z,65
2017-08-30T05:16:08.236Z,65
2017-08-30T05:16:34.387Z,65
2017-08-30T05:17:00.491Z,70
2017-08-30T05:17:26.601Z,70
2017-08-30T05:17:52.716Z,70
2017-08-30T05:18:18.822Z,70
2017-08-30T05:18:44.936Z,70
2017-08-30T05:19:11.041Z,70
2017-08-30T05:19:37.157Z,70
2017-08-30T05:20:03.271Z,70
2017-08-30T05:20:29.375Z,75
2017-08-30T05:20:55.484Z,75
2017-08-30T05:21:21.599Z,75
2017-08-30T05:21:47.713Z,75
2017-08-30T05:22:13.818Z,75
2017-08-30T05:22:39.933Z,75
2017-08-30T05:23:06.039Z,80
2017-08-30T05:23:32.154Z,80
2017-08-30T05:23:58.259Z,80
2017-08-30T05:24:24.373Z,85
2017-08-30T05:24:50.481Z,90
2017-08-30T05:25:16.586Z,90
2017-08-30T05:25:42.700Z,95
2017-08-30T05:26:08.813Z,95
2017-08-30T05:26:34.925Z,100
2017-08-30T05:27:01.040Z,100
2017-08-30T05:27:27.142Z,100
2017-08-30T05:27:53.248Z,105
2017-08-30T05:28:19.363Z,105
2017-08-30T05:28:45.479Z,105
2017-08-30T05:29:11.581Z,110
2017-08-30T05:29:37.689Z,110
2017-08-30T05:30:03.801Z,115
2017-08-30T05:30:29.910Z,115
2017-08-30T05:30:56.023Z,115
2017-08-30T05:31:22.139Z,115
2017-08-30T05:31:48.253Z,115
2017-08-30T05:32:14.367Z,115
2017-08-30T05:32:40.473Z,115
2017-08-30T05:33:06.585Z,120
2017-08-30T05:33:32.689Z,120
2017-08-30T05:33:58.799Z,120
2017-08-30T05:34:24.934Z,120
2017-08-30T05:34:51.040Z,125
2017-08-30T05:35:17.156Z,125
2017-08-30T05:35:43.267Z,125
2017-08-30T05:36:09.374Z,130
2017-08-30T05:36:35.502Z,130
2017-08-30T05:37:01.647Z,135
2017-08-30T05:37:27.766Z,135
2017-08-30T05:37:53.873Z,140
2017-08-30T05:38:19.981Z,140
2017-08-30T05:38:46.094Z,140
2017-08-30T05:39:12.250Z,145
2017-08-30T05:39:38.361Z,145
2017-08-30T05:40:04.613Z,150
2017-08-30T05:40:30.781Z,150
2017-08-30T05:40:56.895Z,150
2017-08-30T05:41:23.001Z,155
2017-08-30T05:41:49.120Z,155
2017-08-30T05:42:15.237Z,155
2017-08-30T05:42:41.350Z,155
2017-08-30T05:43:07.619Z,160
2017-08-30T05:43:33.728Z,160
2017-08-30T05:43:59.844Z,160
2017-08-30T05:44:25.969Z,160
2017-08-30T05:44:52.184Z,165
2017-08-30T05:45:18.219Z,165
2017-08-30T05:45:44.335Z,165
2017-08-30T05:46:10.555Z,165
2017-08-30T05:46:36.693Z,170
2017-08-30T05:47:02.849Z,170
2017-08-30T05:47:28.958Z,170
2017-08-30T05:47:55.068Z,170
2017-08-30T05:48:21.175Z,170
2017-08-30T05:48:47.288Z,175
2017-08-30T05:49:13.409Z,175
2017-08-30T05:49:39.521Z,175
2017-08-30T05:50:05.622Z,175
2017-08-30T05:50:31.737Z,180
2017-08-30T05:50:57.853Z,180
2017-08-30T05:51:23.965Z,180
2017-08-30T05:51:50.072Z,180
2017-08-30T05:52:16.181Z,185
2017-08-30T05:52:42.287Z,185
2017-08-30T05:53:08.405Z,185
2017-08-30T05:53:34.509Z,190
2017-08-30T05:54:00.618Z,190
2017-08-30T05:54:26.734Z,190
2017-08-30T05:54:52.846Z,190
2017-08-30T05:55:18.955Z,195
2017-08-30T05:55:45.064Z,195
2017-08-30T05:56:11.188Z,200
2017-08-30T05:56:37.296Z,205
2017-08-30T05:57:03.415Z,205
2017-08-30T05:57:29.522Z,215
2017-08-30T05:57:55.640Z,215
2017-08-30T05:58:21.759Z,215
2017-08-30T05:58:47.887Z,215
2017-08-30T05:59:13.993Z,220
2017-08-30T05:59:40.109Z,220
2017-08-30T06:00:06.222Z,220
2017-08-30T06:00:32.328Z,220
2017-08-30T06:00:58.460Z,220
2017-08-30T06:01:24.577Z,225
2017-08-30T06:01:50.682Z,230
2017-08-30T06:02:16.795Z,230
2017-08-30T06:02:42.914Z,230
2017-08-30T06:03:09.028Z,230
2017-08-30T06:03:35.136Z,235
2017-08-30T06:04:01.252Z,235
2017-08-30T06:04:27.358Z,240
2017-08-30T06:04:53.472Z,240
2017-08-30T06:05:19.584Z,240
2017-08-30T06:05:45.691Z,240
2017-08-30T06:06:11.800Z,240
2017-08-30T06:06:37.914Z,240
2017-08-30T06:07:04.028Z,235
2017-08-30T06:07:30.132Z,240
2017-08-30T06:07:56.250Z,240
2017-08-30T06:08:22.365Z,240
2017-08-30T06:08:48.468Z,235
2017-08-30T06:09:14.598Z,240
2017-08-30T06:09:40.704Z,240
2017-08-30T06:10:06.820Z,240
2017-08-30T06:10:32.948Z,235
2017-08-30T06:10:59.049Z,235
2017-08-30T06:11:25.159Z,235
2017-08-30T06:11:51.277Z,230
2017-08-30T06:12:17.383Z,225
2017-08-30T06:12:43.507Z,225
2017-08-30T06:13:09.624Z,225
2017-08-30T06:13:35.730Z,220
2017-08-30T06:14:01.840Z,220
2017-08-30T06:14:27.958Z,220
2017-08-30T06:14:54.071Z,215
2017-08-30T06:15:20.180Z,220
2017-08-30T06:15:46.295Z,220
2017-08-30T06:16:12.414Z,220
2017-08-30T06:16:38.520Z,225
2017-08-30T06:17:04.635Z,225
2017-08-30T06:17:30.743Z,225
2017-08-30T06:17:56.857Z,225
2017-08-30T06:18:22.975Z,230
2017-08-30T06:18:49.084Z,225
2017-08-30T06:19:15.190Z,225
2017-08-30T06:19:41.298Z,220
2017-08-30T06:20:07.411Z,215